Terminal Aerodrome Forecast
Issued by NWS

Home | Current Version | Previous Version | Text Only | Print | Product List | Glossary On
Versions: 1 2 3 4 5 6 7 8 9 10 11 12 13 14 15 16
000
FTUS43 KGRR 260534
TAFJXN
TAF
KJXN 260534Z 2606/2706 20010KT P6SM SCT200
     FM261400 19012KT 5SM BR BKN015
     FM261600 19013KT P6SM VCTS BKN035CB
     FM262200 21015KT 3SM -RA BR VCTS BKN035CB
     FM270100 20015KT 5SM BR VCSH BKN050=

USA.gov is the U.S. government's official web portal to all federal, state and local government web resources and services.